This is the latest recevied weather packets stored in our database for station/object TG5ALY-15. If no packets are shown the sender has not sent any weather packets the latest 10 day(s).
| Time | Temp. | Humidity | Pressure | Rain* | Wind** | Luminosity | Snow |
|---|---|---|---|---|---|---|---|
| 1777946388 | 15.56° C | 81% | 1029.9 hPa | 0 mm | - | 0 W/m² | - |
| 1777945188 | 15.56° C | 81% | 1029.5 hPa | 0 mm | - | 0 W/m² | - |
| 1777943989 | 15.56° C | 84% | 1029.5 hPa | 0 mm | - | 0 W/m² | - |
| 1777942785 | 15.56° C | 83% | 1029.5 hPa | 0 mm | - | 0 W/m² | - |
| 1777941585 | 16.11° C | 77% | 1029.9 hPa | 0 mm | - | 0 W/m² | - |
| 1777940385 | 16.67° C | 80% | 1029.2 hPa | 0 mm | - | 3 W/m² | - |
| 1777939179 | 17.22° C | 77% | 1029.2 hPa | 0 mm | - | 21 W/m² | - |
| 1777937978 | 17.78° C | 73% | 1028.7 hPa | 0 mm | - | 39 W/m² | - |
| 1777936777 | 17.78° C | 72% | 1028.3 hPa | 0 mm | - | 58 W/m² | - |
| 1777935577 | 18.33° C | 71% | 1028.7 hPa | 0 mm | - | 69 W/m² | - |
| 1777934376 | 19.44° C | 68% | 1028.3 hPa | 0 mm | - | 90 W/m² | - |
| 1777933174 | 20.56° C | 64% | 1028.3 hPa | 0 mm | - | 439 W/m² | - |
| 1777931973 | 20° C | 65% | 1028.3 hPa | 0 mm | - | 522 W/m² | - |
| 1777930772 | 19.44° C | 66% | 1028.7 hPa | 0 mm | - | 362 W/m² | - |
| 1777929570 | 20° C | 63% | 1028.3 hPa | 0 mm | - | 667 W/m² | - |
| 1777928369 | 20° C | 66% | 1028.7 hPa | 0 mm | - | 736 W/m² | - |
| 1777927168 | 20.56° C | 65% | 1029.2 hPa | 0 mm | - | 754 W/m² | - |
| 1777925966 | 20° C | 69% | 1029.2 hPa | 0 mm | - | 770 W/m² | - |
| 1777924766 | 20° C | 71% | 1029.2 hPa | 0 mm | - | 844 W/m² | - |
| 1777923562 | 19.44° C | 69% | 1029.5 hPa | 0 mm | - | 923 W/m² | - |
| 1777922360 | 20° C | 68% | 1029.9 hPa | 0 mm | - | 544 W/m² | - |
| 1777921157 | 20.56° C | 67% | 1029.9 hPa | 0 mm | - | 810 W/m² | - |
| 1777919953 | 19.44° C | 70% | 1030.4 hPa | 0 mm | - | 644 W/m² | - |
| 1777918754 | 18.89° C | 71% | 1030.8 hPa | 0 mm | - | 830 W/m² | - |
| 1777917552 | 18.89° C | 69% | 1030.8 hPa | 0 mm | - | 849 W/m² | - |
* Rain latest hour (hover to see other rain measurements)
** Current wind speed in m/s (hover to see current wind gust speed)